sensor_id;sensor_type;location;lat;lon;timestamp;P1;durP1;ratioP1;P2;durP2;ratioP2
54679;SDS011;40578;53.178;5.846;2022-07-21T00:00:16;23.73;;;17.38;;
54679;SDS011;40578;53.178;5.846;2022-07-21T00:02:42;22.77;;;17.23;;
54679;SDS011;40578;53.178;5.846;2022-07-21T00:05:08;25.17;;;19.20;;
54679;SDS011;40578;53.178;5.846;2022-07-21T00:07:35;22.92;;;18.63;;
54679;SDS011;40578;53.178;5.846;2022-07-21T00:12:26;24.95;;;20.75;;
54679;SDS011;40578;53.178;5.846;2022-07-21T00:14:51;30.63;;;23.13;;
54679;SDS011;40578;53.178;5.846;2022-07-21T00:17:17;30.50;;;22.30;;
54679;SDS011;40578;53.178;5.846;2022-07-21T00:19:43;34.83;;;23.47;;
54679;SDS011;40578;53.178;5.846;2022-07-21T00:22:08;35.47;;;24.47;;
54679;SDS011;40578;53.178;5.846;2022-07-21T00:24:34;29.90;;;24.30;;
54679;SDS011;40578;53.178;5.846;2022-07-21T00:27:00;37.27;;;27.57;;
54679;SDS011;40578;53.178;5.846;2022-07-21T00:29:25;40.90;;;28.33;;
54679;SDS011;40578;53.178;5.846;2022-07-21T00:31:51;35.83;;;26.97;;
54679;SDS011;40578;53.178;5.846;2022-07-21T00:34:17;38.03;;;28.43;;
54679;SDS011;40578;53.178;5.846;2022-07-21T00:36:42;37.00;;;29.10;;
54679;SDS011;40578;53.178;5.846;2022-07-21T00:39:08;36.20;;;29.43;;
54679;SDS011;40578;53.178;5.846;2022-07-21T00:41:34;38.17;;;29.97;;
54679;SDS011;40578;53.178;5.846;2022-07-21T00:43:59;38.90;;;30.33;;
54679;SDS011;40578;53.178;5.846;2022-07-21T00:46:25;39.30;;;29.83;;
54679;SDS011;40578;53.178;5.846;2022-07-21T00:48:51;39.83;;;30.00;;
54679;SDS011;40578;53.178;5.846;2022-07-21T00:51:16;41.17;;;31.00;;
54679;SDS011;40578;53.178;5.846;2022-07-21T00:53:43;40.47;;;30.27;;
54679;SDS011;40578;53.178;5.846;2022-07-21T00:56:09;40.05;;;31.00;;
54679;SDS011;40578;53.178;5.846;2022-07-21T00:58:35;41.58;;;30.58;;
54679;SDS011;40578;53.178;5.846;2022-07-21T01:01:00;44.00;;;32.00;;
54679;SDS011;40578;53.178;5.846;2022-07-21T01:03:26;42.77;;;31.47;;
54679;SDS011;40578;53.178;5.846;2022-07-21T01:05:52;45.72;;;33.08;;
54679;SDS011;40578;53.178;5.846;2022-07-21T01:08:18;46.53;;;34.37;;
54679;SDS011;40578;53.178;5.846;2022-07-21T01:10:44;46.90;;;33.80;;
54679;SDS011;40578;53.178;5.846;2022-07-21T01:13:09;47.53;;;34.87;;
54679;SDS011;40578;53.178;5.846;2022-07-21T01:15:35;48.10;;;34.63;;
54679;SDS011;40578;53.178;5.846;2022-07-21T01:18:01;48.08;;;37.13;;
54679;SDS011;40578;53.178;5.846;2022-07-21T01:20:27;48.47;;;35.40;;
54679;SDS011;40578;53.178;5.846;2022-07-21T01:22:58;44.67;;;34.85;;
54679;SDS011;40578;53.178;5.846;2022-07-21T01:25:24;51.67;;;37.13;;
54679;SDS011;40578;53.178;5.846;2022-07-21T01:27:49;49.83;;;37.93;;
54679;SDS011;40578;53.178;5.846;2022-07-21T01:30:15;49.85;;;35.95;;
54679;SDS011;40578;53.178;5.846;2022-07-21T01:32:42;52.60;;;37.53;;
54679;SDS011;40578;53.178;5.846;2022-07-21T01:35:09;51.10;;;37.65;;
54679;SDS011;40578;53.178;5.846;2022-07-21T01:37:40;50.58;;;37.90;;
54679;SDS011;40578;53.178;5.846;2022-07-21T01:40:07;54.45;;;39.22;;
54679;SDS011;40578;53.178;5.846;2022-07-21T01:42:52;57.53;;;39.03;;
54679;SDS011;40578;53.178;5.846;2022-07-21T01:45:19;49.13;;;37.47;;
54679;SDS011;40578;53.178;5.846;2022-07-21T01:47:46;50.20;;;38.30;;
54679;SDS011;40578;53.178;5.846;2022-07-21T01:50:12;51.00;;;38.55;;
54679;SDS011;40578;53.178;5.846;2022-07-21T01:52:38;50.03;;;38.00;;
54679;SDS011;40578;53.178;5.846;2022-07-21T01:55:03;61.40;;;39.43;;
54679;SDS011;40578;53.178;5.846;2022-07-21T01:57:29;49.20;;;36.35;;
54679;SDS011;40578;53.178;5.846;2022-07-21T01:59:55;47.20;;;36.87;;
54679;SDS011;40578;53.178;5.846;2022-07-21T02:02:21;48.87;;;36.67;;
54679;SDS011;40578;53.178;5.846;2022-07-21T02:04:47;49.57;;;36.63;;
54679;SDS011;40578;53.178;5.846;2022-07-21T02:07:14;50.83;;;36.50;;
54679;SDS011;40578;53.178;5.846;2022-07-21T02:09:40;46.85;;;36.05;;
54679;SDS011;40578;53.178;5.846;2022-07-21T02:12:06;53.75;;;37.00;;
54679;SDS011;40578;53.178;5.846;2022-07-21T02:14:32;46.75;;;35.53;;
54679;SDS011;40578;53.178;5.846;2022-07-21T02:16:58;44.87;;;33.37;;
54679;SDS011;40578;53.178;5.846;2022-07-21T02:19:23;51.20;;;35.77;;
54679;SDS011;40578;53.178;5.846;2022-07-21T02:21:49;51.83;;;36.27;;
54679;SDS011;40578;53.178;5.846;2022-07-21T02:24:15;58.33;;;37.23;;
54679;SDS011;40578;53.178;5.846;2022-07-21T02:26:40;52.73;;;38.10;;
54679;SDS011;40578;53.178;5.846;2022-07-21T02:29:06;52.03;;;38.40;;
54679;SDS011;40578;53.178;5.846;2022-07-21T02:31:33;58.27;;;38.83;;
54679;SDS011;40578;53.178;5.846;2022-07-21T02:33:59;59.92;;;39.67;;
54679;SDS011;40578;53.178;5.846;2022-07-21T02:36:25;54.00;;;38.97;;
54679;SDS011;40578;53.178;5.846;2022-07-21T02:38:51;51.03;;;38.38;;
54679;SDS011;40578;53.178;5.846;2022-07-21T02:41:17;55.00;;;37.63;;
54679;SDS011;40578;53.178;5.846;2022-07-21T02:43:42;57.37;;;38.70;;
54679;SDS011;40578;53.178;5.846;2022-07-21T02:46:08;53.37;;;37.80;;
54679;SDS011;40578;53.178;5.846;2022-07-21T02:48:34;59.07;;;37.97;;
54679;SDS011;40578;53.178;5.846;2022-07-21T02:50:59;57.70;;;39.03;;
54679;SDS011;40578;53.178;5.846;2022-07-21T02:53:25;51.37;;;36.07;;
54679;SDS011;40578;53.178;5.846;2022-07-21T02:55:51;59.63;;;37.90;;
54679;SDS011;40578;53.178;5.846;2022-07-21T02:58:19;64.90;;;40.67;;
54679;SDS011;40578;53.178;5.846;2022-07-21T03:00:59;58.45;;;39.70;;
54679;SDS011;40578;53.178;5.846;2022-07-21T03:03:27;57.97;;;38.20;;
54679;SDS011;40578;53.178;5.846;2022-07-21T03:05:55;64.15;;;41.80;;
54679;SDS011;40578;53.178;5.846;2022-07-21T03:08:22;63.22;;;40.83;;
54679;SDS011;40578;53.178;5.846;2022-07-21T03:10:48;66.70;;;42.15;;
54679;SDS011;40578;53.178;5.846;2022-07-21T03:13:14;74.38;;;42.92;;
54679;SDS011;40578;53.178;5.846;2022-07-21T03:15:40;70.80;;;43.97;;
54679;SDS011;40578;53.178;5.846;2022-07-21T03:18:06;68.57;;;43.53;;
54679;SDS011;40578;53.178;5.846;2022-07-21T03:20:34;70.37;;;44.10;;
54679;SDS011;40578;53.178;5.846;2022-07-21T03:23:00;82.55;;;45.42;;
54679;SDS011;40578;53.178;5.846;2022-07-21T03:25:26;75.90;;;45.07;;
54679;SDS011;40578;53.178;5.846;2022-07-21T03:27:53;80.63;;;45.80;;
54679;SDS011;40578;53.178;5.846;2022-07-21T03:30:19;75.18;;;47.33;;
54679;SDS011;40578;53.178;5.846;2022-07-21T03:32:47;72.65;;;45.33;;
54679;SDS011;40578;53.178;5.846;2022-07-21T03:35:13;78.78;;;46.75;;
54679;SDS011;40578;53.178;5.846;2022-07-21T03:40:14;78.85;;;47.20;;
54679;SDS011;40578;53.178;5.846;2022-07-21T03:42:41;71.75;;;44.72;;
54679;SDS011;40578;53.178;5.846;2022-07-21T03:45:08;76.17;;;44.80;;
54679;SDS011;40578;53.178;5.846;2022-07-21T03:47:34;76.50;;;45.65;;
54679;SDS011;40578;53.178;5.846;2022-07-21T03:50:00;74.45;;;45.10;;
54679;SDS011;40578;53.178;5.846;2022-07-21T03:52:26;80.03;;;45.63;;
54679;SDS011;40578;53.178;5.846;2022-07-21T03:54:52;74.70;;;44.72;;
54679;SDS011;40578;53.178;5.846;2022-07-21T03:57:34;70.03;;;43.85;;
54679;SDS011;40578;53.178;5.846;2022-07-21T04:00:01;81.90;;;44.40;;
54679;SDS011;40578;53.178;5.846;2022-07-21T04:02:27;67.25;;;40.42;;
54679;SDS011;40578;53.178;5.846;2022-07-21T04:04:53;65.33;;;39.90;;
54679;SDS011;40578;53.178;5.846;2022-07-21T04:07:19;59.33;;;38.42;;
54679;SDS011;40578;53.178;5.846;2022-07-21T04:09:45;59.53;;;39.80;;
54679;SDS011;40578;53.178;5.846;2022-07-21T04:12:10;67.07;;;41.03;;
54679;SDS011;40578;53.178;5.846;2022-07-21T04:14:36;59.97;;;39.47;;
54679;SDS011;40578;53.178;5.846;2022-07-21T04:17:02;72.90;;;40.37;;
54679;SDS011;40578;53.178;5.846;2022-07-21T04:19:27;65.17;;;38.67;;
54679;SDS011;40578;53.178;5.846;2022-07-21T04:21:54;67.53;;;39.80;;
54679;SDS011;40578;53.178;5.846;2022-07-21T04:24:19;63.93;;;39.27;;
54679;SDS011;40578;53.178;5.846;2022-07-21T04:26:45;68.20;;;39.27;;
54679;SDS011;40578;53.178;5.846;2022-07-21T04:29:11;59.77;;;38.13;;
54679;SDS011;40578;53.178;5.846;2022-07-21T04:31:36;60.37;;;39.40;;
54679;SDS011;40578;53.178;5.846;2022-07-21T04:34:02;66.37;;;40.33;;
54679;SDS011;40578;53.178;5.846;2022-07-21T04:36:27;62.63;;;39.30;;
54679;SDS011;40578;53.178;5.846;2022-07-21T04:38:53;70.67;;;40.97;;
54679;SDS011;40578;53.178;5.846;2022-07-21T04:41:19;69.00;;;41.33;;
54679;SDS011;40578;53.178;5.846;2022-07-21T04:43:44;65.43;;;40.40;;
54679;SDS011;40578;53.178;5.846;2022-07-21T04:46:10;61.07;;;38.30;;
54679;SDS011;40578;53.178;5.846;2022-07-21T04:48:36;60.83;;;38.58;;
54679;SDS011;40578;53.178;5.846;2022-07-21T04:51:01;66.93;;;40.43;;
54679;SDS011;40578;53.178;5.846;2022-07-21T04:53:27;55.73;;;36.63;;
54679;SDS011;40578;53.178;5.846;2022-07-21T04:55:53;45.60;;;30.43;;
54679;SDS011;40578;53.178;5.846;2022-07-21T04:58:18;45.33;;;31.77;;
54679;SDS011;40578;53.178;5.846;2022-07-21T05:00:44;52.73;;;32.37;;
54679;SDS011;40578;53.178;5.846;2022-07-21T05:03:10;43.08;;;29.73;;
54679;SDS011;40578;53.178;5.846;2022-07-21T05:05:37;45.17;;;31.00;;
54679;SDS011;40578;53.178;5.846;2022-07-21T05:08:03;47.23;;;33.40;;
54679;SDS011;40578;53.178;5.846;2022-07-21T05:10:29;49.00;;;34.88;;
54679;SDS011;40578;53.178;5.846;2022-07-21T05:12:54;55.43;;;37.87;;
54679;SDS011;40578;53.178;5.846;2022-07-21T05:15:20;52.90;;;36.47;;
54679;SDS011;40578;53.178;5.846;2022-07-21T05:17:46;50.60;;;34.37;;
54679;SDS011;40578;53.178;5.846;2022-07-21T05:20:12;53.57;;;35.43;;
54679;SDS011;40578;53.178;5.846;2022-07-21T05:22:37;49.63;;;31.53;;
54679;SDS011;40578;53.178;5.846;2022-07-21T05:25:04;43.08;;;29.95;;
54679;SDS011;40578;53.178;5.846;2022-07-21T05:29:56;38.08;;;25.98;;
54679;SDS011;40578;53.178;5.846;2022-07-21T05:32:22;36.88;;;25.95;;
54679;SDS011;40578;53.178;5.846;2022-07-21T05:34:48;36.27;;;25.17;;
54679;SDS011;40578;53.178;5.846;2022-07-21T05:37:14;36.50;;;23.00;;
54679;SDS011;40578;53.178;5.846;2022-07-21T05:39:40;31.95;;;23.38;;
54679;SDS011;40578;53.178;5.846;2022-07-21T05:42:06;31.43;;;23.77;;
54679;SDS011;40578;53.178;5.846;2022-07-21T05:44:31;33.73;;;24.30;;
54679;SDS011;40578;53.178;5.846;2022-07-21T05:46:57;35.50;;;25.30;;
54679;SDS011;40578;53.178;5.846;2022-07-21T05:49:23;34.47;;;24.43;;
54679;SDS011;40578;53.178;5.846;2022-07-21T05:51:48;33.17;;;22.48;;
54679;SDS011;40578;53.178;5.846;2022-07-21T05:54:14;29.63;;;21.20;;
54679;SDS011;40578;53.178;5.846;2022-07-21T05:56:40;26.60;;;17.90;;
54679;SDS011;40578;53.178;5.846;2022-07-21T05:59:05;21.67;;;16.70;;
54679;SDS011;40578;53.178;5.846;2022-07-21T06:01:31;26.43;;;17.63;;
54679;SDS011;40578;53.178;5.846;2022-07-21T06:03:56;28.27;;;18.57;;
54679;SDS011;40578;53.178;5.846;2022-07-21T06:06:22;23.92;;;17.75;;
54679;SDS011;40578;53.178;5.846;2022-07-21T06:08:48;29.40;;;17.93;;
54679;SDS011;40578;53.178;5.846;2022-07-21T06:11:15;27.30;;;18.13;;
54679;SDS011;40578;53.178;5.846;2022-07-21T06:13:42;26.13;;;17.20;;
54679;SDS011;40578;53.178;5.846;2022-07-21T06:16:08;25.67;;;18.33;;
54679;SDS011;40578;53.178;5.846;2022-07-21T06:18:35;26.75;;;18.33;;
54679;SDS011;40578;53.178;5.846;2022-07-21T06:21:01;25.37;;;18.73;;
54679;SDS011;40578;53.178;5.846;2022-07-21T06:23:27;23.88;;;17.05;;
54679;SDS011;40578;53.178;5.846;2022-07-21T06:25:53;22.60;;;14.95;;
54679;SDS011;40578;53.178;5.846;2022-07-21T06:28:19;21.00;;;15.73;;
54679;SDS011;40578;53.178;5.846;2022-07-21T06:30:45;17.88;;;15.27;;
54679;SDS011;40578;53.178;5.846;2022-07-21T06:33:10;24.33;;;16.83;;
54679;SDS011;40578;53.178;5.846;2022-07-21T06:35:36;24.23;;;17.17;;
54679;SDS011;40578;53.178;5.846;2022-07-21T06:38:02;23.88;;;19.80;;
54679;SDS011;40578;53.178;5.846;2022-07-21T06:40:28;25.53;;;19.70;;
54679;SDS011;40578;53.178;5.846;2022-07-21T06:42:54;26.38;;;21.13;;
54679;SDS011;40578;53.178;5.846;2022-07-21T06:45:20;23.70;;;19.08;;
54679;SDS011;40578;53.178;5.846;2022-07-21T06:47:46;27.42;;;19.55;;
54679;SDS011;40578;53.178;5.846;2022-07-21T06:50:12;26.70;;;22.07;;
54679;SDS011;40578;53.178;5.846;2022-07-21T06:52:38;25.50;;;21.45;;
54679;SDS011;40578;53.178;5.846;2022-07-21T06:55:05;27.98;;;22.25;;
54679;SDS011;40578;53.178;5.846;2022-07-21T06:57:33;28.00;;;22.05;;
54679;SDS011;40578;53.178;5.846;2022-07-21T07:00:00;31.10;;;22.55;;
54679;SDS011;40578;53.178;5.846;2022-07-21T07:02:26;28.58;;;21.92;;
54679;SDS011;40578;53.178;5.846;2022-07-21T07:04:51;28.53;;;22.10;;
54679;SDS011;40578;53.178;5.846;2022-07-21T07:07:17;29.70;;;22.43;;
54679;SDS011;40578;53.178;5.846;2022-07-21T07:09:43;34.13;;;22.73;;
54679;SDS011;40578;53.178;5.846;2022-07-21T07:12:08;28.03;;;23.03;;
54679;SDS011;40578;53.178;5.846;2022-07-21T07:14:36;34.05;;;26.00;;
54679;SDS011;40578;53.178;5.846;2022-07-21T07:17:02;33.30;;;26.23;;
54679;SDS011;40578;53.178;5.846;2022-07-21T07:19:29;33.38;;;26.48;;
54679;SDS011;40578;53.178;5.846;2022-07-21T07:21:57;31.08;;;26.83;;
54679;SDS011;40578;53.178;5.846;2022-07-21T07:24:24;36.50;;;27.95;;
54679;SDS011;40578;53.178;5.846;2022-07-21T07:29:15;34.88;;;25.98;;
54679;SDS011;40578;53.178;5.846;2022-07-21T07:31:42;31.53;;;26.90;;
54679;SDS011;40578;53.178;5.846;2022-07-21T07:34:08;34.55;;;26.17;;
54679;SDS011;40578;53.178;5.846;2022-07-21T07:36:34;32.78;;;27.27;;
54679;SDS011;40578;53.178;5.846;2022-07-21T07:39:01;31.85;;;26.58;;
54679;SDS011;40578;53.178;5.846;2022-07-21T07:41:28;33.47;;;25.90;;
54679;SDS011;40578;53.178;5.846;2022-07-21T07:43:54;28.42;;;23.50;;
54679;SDS011;40578;53.178;5.846;2022-07-21T07:46:20;28.40;;;23.55;;
54679;SDS011;40578;53.178;5.846;2022-07-21T07:48:47;27.23;;;21.73;;
54679;SDS011;40578;53.178;5.846;2022-07-21T07:51:13;26.83;;;21.90;;
54679;SDS011;40578;53.178;5.846;2022-07-21T07:53:39;24.73;;;20.98;;
54679;SDS011;40578;53.178;5.846;2022-07-21T07:56:07;27.08;;;20.83;;
54679;SDS011;40578;53.178;5.846;2022-07-21T07:58:33;24.98;;;21.33;;
54679;SDS011;40578;53.178;5.846;2022-07-21T08:01:00;23.95;;;21.13;;
54679;SDS011;40578;53.178;5.846;2022-07-21T08:03:26;25.17;;;20.45;;
54679;SDS011;40578;53.178;5.846;2022-07-21T08:08:19;21.77;;;17.75;;
54679;SDS011;40578;53.178;5.846;2022-07-21T08:10:45;22.45;;;18.42;;
54679;SDS011;40578;53.178;5.846;2022-07-21T08:13:12;20.58;;;18.33;;
54679;SDS011;40578;53.178;5.846;2022-07-21T08:15:39;24.60;;;19.00;;
54679;SDS011;40578;53.178;5.846;2022-07-21T08:18:05;26.30;;;20.55;;
54679;SDS011;40578;53.178;5.846;2022-07-21T08:20:31;24.02;;;20.65;;
54679;SDS011;40578;53.178;5.846;2022-07-21T08:23:00;25.25;;;22.55;;
54679;SDS011;40578;53.178;5.846;2022-07-21T08:25:26;30.35;;;24.65;;
54679;SDS011;40578;53.178;5.846;2022-07-21T08:27:53;28.38;;;25.25;;
54679;SDS011;40578;53.178;5.846;2022-07-21T08:32:44;33.78;;;28.17;;
54679;SDS011;40578;53.178;5.846;2022-07-21T08:35:10;33.13;;;29.07;;
54679;SDS011;40578;53.178;5.846;2022-07-21T08:37:37;34.60;;;29.58;;
54679;SDS011;40578;53.178;5.846;2022-07-21T08:40:04;33.30;;;29.13;;
54679;SDS011;40578;53.178;5.846;2022-07-21T08:42:33;32.92;;;27.73;;
54679;SDS011;40578;53.178;5.846;2022-07-21T08:44:59;30.92;;;27.13;;
54679;SDS011;40578;53.178;5.846;2022-07-21T08:47:25;34.30;;;28.20;;
54679;SDS011;40578;53.178;5.846;2022-07-21T08:49:53;29.05;;;26.15;;
54679;SDS011;40578;53.178;5.846;2022-07-21T08:52:19;32.70;;;27.55;;
54679;SDS011;40578;53.178;5.846;2022-07-21T08:54:45;30.87;;;27.17;;
54679;SDS011;40578;53.178;5.846;2022-07-21T08:57:17;31.50;;;28.10;;
54679;SDS011;40578;53.178;5.846;2022-07-21T08:59:42;25.60;;;22.85;;
54679;SDS011;40578;53.178;5.846;2022-07-21T09:02:27;19.90;;;16.73;;
54679;SDS011;40578;53.178;5.846;2022-07-21T09:04:56;17.52;;;15.73;;
54679;SDS011;40578;53.178;5.846;2022-07-21T09:07:22;19.38;;;17.40;;
54679;SDS011;40578;53.178;5.846;2022-07-21T09:09:55;22.33;;;20.02;;
54679;SDS011;40578;53.178;5.846;2022-07-21T09:12:23;24.35;;;21.77;;
54679;SDS011;40578;53.178;5.846;2022-07-21T09:14:50;26.38;;;23.27;;
54679;SDS011;40578;53.178;5.846;2022-07-21T09:17:16;26.40;;;22.42;;
54679;SDS011;40578;53.178;5.846;2022-07-21T09:19:44;28.70;;;24.92;;
54679;SDS011;40578;53.178;5.846;2022-07-21T09:22:15;28.15;;;25.10;;
54679;SDS011;40578;53.178;5.846;2022-07-21T09:24:48;31.02;;;26.50;;
54679;SDS011;40578;53.178;5.846;2022-07-21T09:27:15;30.33;;;26.98;;
54679;SDS011;40578;53.178;5.846;2022-07-21T09:29:44;32.30;;;27.48;;
54679;SDS011;40578;53.178;5.846;2022-07-21T09:34:44;25.13;;;22.48;;
54679;SDS011;40578;53.178;5.846;2022-07-21T09:37:15;23.75;;;21.15;;
54679;SDS011;40578;53.178;5.846;2022-07-21T09:42:32;20.17;;;18.05;;
54679;SDS011;40578;53.178;5.846;2022-07-21T09:45:11;21.08;;;18.88;;
54679;SDS011;40578;53.178;5.846;2022-07-21T09:47:39;22.33;;;19.60;;
54679;SDS011;40578;53.178;5.846;2022-07-21T09:50:07;24.45;;;21.02;;
54679;SDS011;40578;53.178;5.846;2022-07-21T09:52:36;25.08;;;21.50;;
54679;SDS011;40578;53.178;5.846;2022-07-21T09:57:31;33.30;;;25.95;;
54679;SDS011;40578;53.178;5.846;2022-07-21T09:59:57;32.55;;;26.58;;
54679;SDS011;40578;53.178;5.846;2022-07-21T10:02:27;37.55;;;27.13;;
54679;SDS011;40578;53.178;5.846;2022-07-21T10:05:05;28.80;;;24.10;;
54679;SDS011;40578;53.178;5.846;2022-07-21T10:07:31;33.85;;;27.17;;
54679;SDS011;40578;53.178;5.846;2022-07-21T10:09:59;33.40;;;26.60;;
54679;SDS011;40578;53.178;5.846;2022-07-21T10:12:26;33.73;;;27.60;;
54679;SDS011;40578;53.178;5.846;2022-07-21T10:14:52;30.02;;;26.35;;
54679;SDS011;40578;53.178;5.846;2022-07-21T10:17:19;33.83;;;27.10;;
54679;SDS011;40578;53.178;5.846;2022-07-21T10:25:15;33.40;;;26.13;;
54679;SDS011;40578;53.178;5.846;2022-07-21T10:33:17;27.85;;;19.48;;
54679;SDS011;40578;53.178;5.846;2022-07-21T10:35:49;28.83;;;17.42;;
54679;SDS011;40578;53.178;5.846;2022-07-21T10:38:26;21.80;;;18.83;;
54679;SDS011;40578;53.178;5.846;2022-07-21T10:45:52;26.13;;;22.25;;
54679;SDS011;40578;53.178;5.846;2022-07-21T10:49:02;24.83;;;20.98;;
54679;SDS011;40578;53.178;5.846;2022-07-21T10:51:15;26.30;;;22.13;;
54679;SDS011;40578;53.178;5.846;2022-07-21T10:53:42;26.50;;;21.65;;
54679;SDS011;40578;53.178;5.846;2022-07-21T10:56:10;26.05;;;22.67;;
54679;SDS011;40578;53.178;5.846;2022-07-21T10:58:56;27.75;;;21.70;;
54679;SDS011;40578;53.178;5.846;2022-07-21T11:01:22;26.97;;;23.27;;
54679;SDS011;40578;53.178;5.846;2022-07-21T11:04:08;25.13;;;20.52;;
54679;SDS011;40578;53.178;5.846;2022-07-21T11:06:36;26.45;;;22.27;;
54679;SDS011;40578;53.178;5.846;2022-07-21T11:11:30;27.63;;;23.13;;
54679;SDS011;40578;53.178;5.846;2022-07-21T11:24:51;21.85;;;18.27;;
54679;SDS011;40578;53.178;5.846;2022-07-21T11:27:21;20.58;;;17.30;;
54679;SDS011;40578;53.178;5.846;2022-07-21T11:29:49;19.20;;;16.00;;
54679;SDS011;40578;53.178;5.846;2022-07-21T11:32:20;19.48;;;16.80;;
54679;SDS011;40578;53.178;5.846;2022-07-21T11:34:54;19.80;;;16.75;;
54679;SDS011;40578;53.178;5.846;2022-07-21T11:39:59;17.50;;;15.27;;
54679;SDS011;40578;53.178;5.846;2022-07-21T11:42:26;16.83;;;14.40;;
54679;SDS011;40578;53.178;5.846;2022-07-21T11:44:53;17.92;;;15.75;;
54679;SDS011;40578;53.178;5.846;2022-07-21T11:47:19;18.55;;;16.27;;
54679;SDS011;40578;53.178;5.846;2022-07-21T11:49:51;19.98;;;15.85;;
54679;SDS011;40578;53.178;5.846;2022-07-21T11:52:18;16.67;;;14.63;;
54679;SDS011;40578;53.178;5.846;2022-07-21T11:54:50;17.60;;;14.35;;
54679;SDS011;40578;53.178;5.846;2022-07-21T11:57:18;17.20;;;14.13;;
54679;SDS011;40578;53.178;5.846;2022-07-21T11:59:45;16.80;;;13.63;;
54679;SDS011;40578;53.178;5.846;2022-07-21T12:02:13;15.02;;;13.45;;
54679;SDS011;40578;53.178;5.846;2022-07-21T12:04:53;15.90;;;13.27;;
54679;SDS011;40578;53.178;5.846;2022-07-21T12:07:21;14.65;;;13.15;;
54679;SDS011;40578;53.178;5.846;2022-07-21T12:09:51;15.35;;;13.07;;
54679;SDS011;40578;53.178;5.846;2022-07-21T12:12:34;14.88;;;12.35;;
54679;SDS011;40578;53.178;5.846;2022-07-21T12:15:38;7.87;;;7.07;;
54679;SDS011;40578;53.178;5.846;2022-07-21T12:20:27;9.60;;;8.05;;
54679;SDS011;40578;53.178;5.846;2022-07-21T12:22:55;8.82;;;7.93;;
54679;SDS011;40578;53.178;5.846;2022-07-21T12:25:32;9.93;;;8.00;;
54679;SDS011;40578;53.178;5.846;2022-07-21T12:28:00;8.90;;;8.00;;
54679;SDS011;40578;53.178;5.846;2022-07-21T12:33:05;14.05;;;10.40;;
54679;SDS011;40578;53.178;5.846;2022-07-21T12:35:33;11.40;;;10.13;;
54679;SDS011;40578;53.178;5.846;2022-07-21T12:38:04;14.50;;;10.93;;
54679;SDS011;40578;53.178;5.846;2022-07-21T12:40:48;12.25;;;11.02;;
54679;SDS011;40578;53.178;5.846;2022-07-21T12:43:21;14.00;;;11.02;;
54679;SDS011;40578;53.178;5.846;2022-07-21T12:45:58;14.05;;;11.27;;
54679;SDS011;40578;53.178;5.846;2022-07-21T12:48:26;11.65;;;10.13;;
54679;SDS011;40578;53.178;5.846;2022-07-21T12:51:02;12.82;;;10.25;;
54679;SDS011;40578;53.178;5.846;2022-07-21T12:53:29;21.80;;;11.90;;
54679;SDS011;40578;53.178;5.846;2022-07-21T12:55:55;13.65;;;11.77;;
54679;SDS011;40578;53.178;5.846;2022-07-21T12:58:21;14.97;;;11.83;;
54679;SDS011;40578;53.178;5.846;2022-07-21T13:00:47;14.77;;;11.68;;
54679;SDS011;40578;53.178;5.846;2022-07-21T13:03:13;14.27;;;11.40;;
54679;SDS011;40578;53.178;5.846;2022-07-21T13:05:39;12.77;;;10.90;;
54679;SDS011;40578;53.178;5.846;2022-07-21T13:08:05;12.77;;;9.93;;
54679;SDS011;40578;53.178;5.846;2022-07-21T13:10:31;13.07;;;9.60;;
54679;SDS011;40578;53.178;5.846;2022-07-21T13:12:56;12.55;;;9.70;;
54679;SDS011;40578;53.178;5.846;2022-07-21T13:15:22;11.20;;;9.43;;
54679;SDS011;40578;53.178;5.846;2022-07-21T13:17:48;11.33;;;9.73;;
54679;SDS011;40578;53.178;5.846;2022-07-21T13:20:14;12.18;;;10.35;;
54679;SDS011;40578;53.178;5.846;2022-07-21T13:22:40;10.20;;;8.43;;
54679;SDS011;40578;53.178;5.846;2022-07-21T13:30:00;9.23;;;7.57;;
54679;SDS011;40578;53.178;5.846;2022-07-21T13:32:27;7.72;;;6.93;;
54679;SDS011;40578;53.178;5.846;2022-07-21T13:34:53;9.32;;;7.47;;
54679;SDS011;40578;53.178;5.846;2022-07-21T13:37:19;10.10;;;7.03;;
54679;SDS011;40578;53.178;5.846;2022-07-21T13:39:45;9.63;;;8.17;;
54679;SDS011;40578;53.178;5.846;2022-07-21T13:42:11;8.93;;;7.30;;
54679;SDS011;40578;53.178;5.846;2022-07-21T13:44:36;8.40;;;7.50;;
54679;SDS011;40578;53.178;5.846;2022-07-21T13:47:02;9.07;;;8.10;;
54679;SDS011;40578;53.178;5.846;2022-07-21T13:49:28;9.70;;;7.75;;
54679;SDS011;40578;53.178;5.846;2022-07-21T13:51:54;10.13;;;7.93;;
54679;SDS011;40578;53.178;5.846;2022-07-21T13:54:19;8.37;;;6.97;;
54679;SDS011;40578;53.178;5.846;2022-07-21T13:56:46;8.90;;;7.25;;
54679;SDS011;40578;53.178;5.846;2022-07-21T13:59:12;7.93;;;6.82;;
54679;SDS011;40578;53.178;5.846;2022-07-21T14:01:37;8.97;;;7.20;;
54679;SDS011;40578;53.178;5.846;2022-07-21T14:04:03;9.88;;;8.32;;
54679;SDS011;40578;53.178;5.846;2022-07-21T14:06:29;9.83;;;7.87;;
54679;SDS011;40578;53.178;5.846;2022-07-21T14:08:55;11.63;;;8.77;;
54679;SDS011;40578;53.178;5.846;2022-07-21T14:11:21;12.15;;;9.10;;
54679;SDS011;40578;53.178;5.846;2022-07-21T14:13:49;10.25;;;8.85;;
54679;SDS011;40578;53.178;5.846;2022-07-21T14:16:15;10.40;;;8.85;;
54679;SDS011;40578;53.178;5.846;2022-07-21T14:18:41;12.75;;;10.02;;
54679;SDS011;40578;53.178;5.846;2022-07-21T14:21:10;11.43;;;9.95;;
54679;SDS011;40578;53.178;5.846;2022-07-21T14:23:36;10.73;;;9.32;;
54679;SDS011;40578;53.178;5.846;2022-07-21T14:26:02;10.37;;;9.37;;
54679;SDS011;40578;53.178;5.846;2022-07-21T14:28:28;10.00;;;8.93;;
54679;SDS011;40578;53.178;5.846;2022-07-21T14:30:54;10.15;;;9.00;;
54679;SDS011;40578;53.178;5.846;2022-07-21T14:33:19;12.13;;;9.63;;
54679;SDS011;40578;53.178;5.846;2022-07-21T14:35:45;11.50;;;9.53;;
54679;SDS011;40578;53.178;5.846;2022-07-21T14:38:11;15.77;;;10.90;;
54679;SDS011;40578;53.178;5.846;2022-07-21T14:40:37;15.10;;;12.23;;
54679;SDS011;40578;53.178;5.846;2022-07-21T14:43:03;13.55;;;10.23;;
54679;SDS011;40578;53.178;5.846;2022-07-21T14:45:29;11.77;;;6.97;;
54679;SDS011;40578;53.178;5.846;2022-07-21T14:47:58;12.40;;;6.57;;
54679;SDS011;40578;53.178;5.846;2022-07-21T14:50:25;10.32;;;6.05;;
54679;SDS011;40578;53.178;5.846;2022-07-21T14:52:54;12.70;;;5.72;;
54679;SDS011;40578;53.178;5.846;2022-07-21T14:55:21;10.60;;;5.63;;
54679;SDS011;40578;53.178;5.846;2022-07-21T15:00:14;13.68;;;4.90;;
54679;SDS011;40578;53.178;5.846;2022-07-21T15:02:40;11.73;;;4.25;;
54679;SDS011;40578;53.178;5.846;2022-07-21T15:05:07;10.80;;;4.67;;
54679;SDS011;40578;53.178;5.846;2022-07-21T15:07:32;9.82;;;3.63;;
54679;SDS011;40578;53.178;5.846;2022-07-21T15:09:58;13.07;;;4.20;;
54679;SDS011;40578;53.178;5.846;2022-07-21T15:12:24;10.55;;;3.80;;
54679;SDS011;40578;53.178;5.846;2022-07-21T15:14:53;11.20;;;4.20;;
54679;SDS011;40578;53.178;5.846;2022-07-21T15:17:18;8.25;;;3.35;;
54679;SDS011;40578;53.178;5.846;2022-07-21T15:19:44;8.20;;;3.63;;
54679;SDS011;40578;53.178;5.846;2022-07-21T15:22:10;7.33;;;3.70;;
54679;SDS011;40578;53.178;5.846;2022-07-21T15:24:37;7.40;;;3.47;;
54679;SDS011;40578;53.178;5.846;2022-07-21T15:29:29;9.63;;;3.05;;
54679;SDS011;40578;53.178;5.846;2022-07-21T15:31:55;6.53;;;3.17;;